Sligo Airport - TAF
(Terminal Area Forecast)

Issued at 15:51 UTC on Mon. 17-Jan-22

--- METARS(SA) ---

METAR EISG(SLIGO) 171530Z VRB05KT CAVOK 05/02 Q1035 =

--- TAFS() ---

TAF EISG(SLIGO) 171400Z 1715/1724 12008KT CAVOK PROB40 TEMPO

1720/1724 3000 BR PROB30 TEMPO 1721/1724 0800 FG BKN001 BECMG 1722/1724

15010KT =

--- SIGMETS(WS) ---

IE - No VALID SIGMETS/Warnings FOR THIS AREA

--- SIGMETS Volcanic(WV) ---

IE - No VALID SIGMETS/Warnings FOR THIS AREA

--- SIGMETS(WS) ---

UK - No VALID SIGMETS/Warnings FOR THIS AREA

Sligo Airport - METARs

Latest METARs for Sligo and Donegal Airports - updated every 30 mins